Time;durP1;ratioP1;P1;durP2;ratioP2;P2;SDS_P1;SDS_P2;PMS_P1;PMS_P2;Temp;Humidity;BMP_temperature;BMP_pressure;BME280_temperature;BME280_humidity;BME280_pressure;Samples;Min_cycle;Max_cycle;Signal;HPM_P1;HPM_P2
2022/12/13 00:00:30;;;;;;;85.40;31.07;;;-7.60;99.90;;;;;;5074183;28;20227;-73
2022/12/13 00:02:58;;;;;;;123.37;30.90;;;-7.60;99.90;;;;;;5074097;28;20574;-73
2022/12/13 00:05:24;;;;;;;106.47;32.07;;;-7.60;99.90;;;;;;5074203;28;20608;-73
2022/12/13 00:07:51;;;;;;;69.07;30.27;;;-7.60;99.90;;;;;;5074091;28;20281;-73
2022/12/13 00:10:18;;;;;;;68.47;29.83;;;-7.70;99.90;;;;;;5073816;28;20299;-73
2022/12/13 00:12:44;;;;;;;64.40;29.07;;;-7.70;99.90;;;;;;5074163;28;20258;-72
2022/12/13 00:15:11;;;;;;;69.57;30.43;;;-7.80;99.90;;;;;;5074142;28;20247;-73
2022/12/13 00:17:38;;;;;;;115.77;32.63;;;-7.80;99.90;;;;;;5074116;28;20248;-72
2022/12/13 00:20:07;;;;;;;83.17;30.87;;;-7.90;99.90;;;;;;5074021;28;20227;-72
2022/12/13 00:22:33;;;;;;;69.07;29.73;;;-8.00;99.90;;;;;;5074100;28;20735;-73
2022/12/13 00:25:00;;;;;;;67.07;29.53;;;-8.00;99.90;;;;;;5074042;28;20195;-72
2022/12/13 00:27:27;;;;;;;60.93;29.63;;;-8.00;99.90;;;;;;5073972;28;20203;-72
2022/12/13 00:29:53;;;;;;;64.40;28.07;;;-8.00;99.90;;;;;;5074219;28;20206;-72
2022/12/13 00:32:20;;;;;;;69.13;29.10;;;-8.00;99.90;;;;;;5074084;28;20200;-72
2022/12/13 00:34:47;;;;;;;67.20;29.73;;;-8.10;99.90;;;;;;5073989;28;20210;-72
2022/12/13 00:37:15;;;;;;;69.67;31.57;;;-8.20;99.90;;;;;;5073957;28;20647;-73
2022/12/13 00:39:41;;;;;;;68.50;29.67;;;-8.20;99.90;;;;;;5072886;28;20220;-73
2022/12/13 00:42:08;;;;;;;63.83;29.63;;;-8.30;99.90;;;;;;5073857;28;20201;-72
2022/12/13 00:44:35;;;;;;;57.20;27.10;;;-8.30;99.90;;;;;;5073928;28;20207;-72
2022/12/13 00:47:01;;;;;;;68.93;29.90;;;-8.40;99.90;;;;;;5074242;28;20195;-72
2022/12/13 00:49:28;;;;;;;59.47;27.97;;;-8.40;99.90;;;;;;5073745;28;20249;-72
2022/12/13 00:51:55;;;;;;;76.33;28.97;;;-8.40;99.90;;;;;;5073764;28;20199;-72
2022/12/13 00:54:23;;;;;;;74.83;29.77;;;-8.50;99.90;;;;;;5074106;28;20609;-72
2022/12/13 00:56:51;;;;;;;66.00;27.37;;;-8.50;99.90;;;;;;5077389;28;20200;-72
2022/12/13 00:59:17;;;;;;;60.73;28.63;;;-8.60;99.90;;;;;;5080869;28;20229;-73
2022/12/13 01:01:44;;;;;;;59.97;27.17;;;-8.60;99.90;;;;;;5080993;28;20194;-73
2022/12/13 01:04:11;;;;;;;58.80;27.80;;;-8.70;99.90;;;;;;5081072;28;20193;-72
2022/12/13 01:06:40;;;;;;;61.60;28.17;;;-8.70;99.90;;;;;;5080807;28;20199;-72
2022/12/13 01:09:09;;;;;;;57.50;27.43;;;-8.80;99.90;;;;;;5080352;28;20770;-73
2022/12/13 01:11:37;;;;;;;66.50;28.43;;;-8.80;99.90;;;;;;5075001;28;20241;-73
2022/12/13 01:14:04;;;;;;;57.03;28.20;;;-8.70;99.90;;;;;;5074465;28;20252;-73
2022/12/13 01:16:31;;;;;;;58.30;27.93;;;-8.70;99.90;;;;;;5073843;28;20256;-73
2022/12/13 01:18:58;;;;;;;63.00;28.13;;;-8.80;99.90;;;;;;5073544;28;20200;-73
2022/12/13 01:21:24;;;;;;;73.93;30.43;;;-8.90;99.90;;;;;;5073689;28;20615;-73
2022/12/13 01:23:51;;;;;;;63.70;27.77;;;-8.90;99.90;;;;;;5073591;28;20239;-73
2022/12/13 01:26:21;;;;;;;68.20;28.63;;;-8.90;99.90;;;;;;5073994;28;20202;-73
2022/12/13 01:28:49;;;;;;;68.97;29.40;;;-9.00;99.90;;;;;;5073695;28;20202;-73
2022/12/13 01:31:19;;;;;;;72.80;30.20;;;-9.10;99.90;;;;;;5073704;28;20201;-73
2022/12/13 01:33:46;;;;;;;67.37;28.63;;;-9.20;99.90;;;;;;5073488;28;20649;-73
2022/12/13 01:36:16;;;;;;;73.67;30.40;;;-9.30;99.90;;;;;;5073497;28;20652;-73
2022/12/13 01:38:43;;;;;;;59.47;28.17;;;-9.30;99.90;;;;;;5073587;28;20200;-73
2022/12/13 01:41:13;;;;;;;54.23;26.73;;;-9.30;99.90;;;;;;5073415;28;20631;-72
2022/12/13 01:43:59;;;;;;;60.60;26.23;;;-9.30;99.90;;;;;;5074152;28;20201;-73
2022/12/13 01:46:26;;;;;;;54.93;26.80;;;-9.20;99.90;;;;;;5073366;28;20201;-73
2022/12/13 01:48:57;;;;;;;50.17;26.93;;;-9.20;99.90;;;;;;5073280;28;20198;-72
2022/12/13 01:51:29;;;;;;;57.63;26.43;;;-9.30;99.90;;;;;;5076447;28;20722;-73
2022/12/13 01:53:59;;;;;;;62.10;27.73;;;-9.40;99.90;;;;;;5076906;28;20198;-74
2022/12/13 01:56:30;;;;;;;55.20;26.03;;;-9.50;99.90;;;;;;5077062;28;20208;-72
2022/12/13 01:59:01;;;;;;;55.43;26.03;;;-9.60;99.90;;;;;;5076917;28;20205;-72
2022/12/13 02:01:28;;;;;;;55.27;24.97;;;-9.60;99.90;;;;;;5077018;28;20220;-72
2022/12/13 02:03:55;;;;;;;55.23;24.80;;;-9.70;99.90;;;;;;5077423;28;20201;-72
2022/12/13 02:06:28;;;;;;;52.27;24.20;;;-9.90;99.90;;;;;;5076989;28;20212;-73
2022/12/13 02:08:55;;;;;;;53.63;25.07;;;-9.80;99.90;;;;;;5077059;28;20688;-73
2022/12/13 02:11:22;;;;;;;52.83;24.63;;;-9.70;99.90;;;;;;5077107;28;20660;-73
2022/12/13 02:13:49;;;;;;;54.67;24.70;;;-9.70;99.90;;;;;;5076839;28;20197;-73
2022/12/13 02:16:26;;;;;;;54.80;26.40;;;-9.80;99.90;;;;;;5076896;28;20231;-73
2022/12/13 02:19:09;;;;;;;48.00;23.37;;;-9.80;99.90;;;;;;5076780;28;20193;-73
2022/12/13 02:21:45;;;;;;;54.57;25.63;;;-9.80;99.90;;;;;;5076461;28;20565;-73
2022/12/13 02:24:50;;;;;;;54.33;24.83;;;-9.80;99.90;;;;;;5076396;28;20555;-73
2022/12/13 02:27:49;;;;;;;58.33;26.07;;;-9.80;99.90;;;;;;5076199;28;20205;-73
2022/12/13 02:30:23;;;;;;;56.77;26.43;;;-9.90;99.90;;;;;;5064504;28;20296;-72
2022/12/13 02:33:06;;;;;;;55.60;25.03;;;-10.00;99.90;;;;;;5076625;28;20193;-72
2022/12/13 02:35:42;;;;;;;53.93;24.57;;;-10.00;99.90;;;;;;5076620;28;20193;-73
2022/12/13 02:38:14;;;;;;;51.47;23.57;;;-10.00;99.90;;;;;;5076223;28;20594;-73
2022/12/13 02:40:44;;;;;;;54.20;25.80;;;-10.10;99.90;;;;;;5075937;28;20684;-73
2022/12/13 02:43:17;;;;;;;56.03;24.40;;;-10.20;99.90;;;;;;5076063;28;20186;-73
2022/12/13 02:45:47;;;;;;;53.20;25.00;;;-10.20;99.90;;;;;;5076442;28;20197;-72
2022/12/13 02:48:18;;;;;;;49.83;23.70;;;-10.20;99.90;;;;;;5076594;28;20258;-73
2022/12/13 02:50:46;;;;;;;49.73;22.70;;;-10.30;99.90;;;;;;5076072;28;20264;-73
2022/12/13 02:53:15;;;;;;;51.23;24.17;;;-10.40;99.90;;;;;;5075806;28;20231;-72
2022/12/13 02:55:42;;;;;;;51.07;22.67;;;-10.40;99.90;;;;;;5076218;28;20248;-73
2022/12/13 02:58:12;;;;;;;50.00;24.10;;;-10.20;99.90;;;;;;5075771;28;20197;-72
2022/12/13 03:00:51;;;;;;;43.33;22.07;;;-10.20;99.90;;;;;;5076133;28;20266;-72
2022/12/13 03:03:30;;;;;;;40.70;21.90;;;-10.20;99.90;;;;;;5074756;28;20200;-73
2022/12/13 03:09:06;;;;;;;44.47;21.43;;;-10.30;99.90;;;;;;5075668;28;20702;-72
2022/12/13 03:14:26;;;;;;;41.47;21.17;;;-10.30;99.90;;;;;;5081032;28;20179;-73
2022/12/13 03:16:55;;;;;;;43.73;20.63;;;-10.20;99.90;;;;;;5082442;28;20205;-73
2022/12/13 03:19:22;;;;;;;50.40;23.17;;;-10.20;99.90;;;;;;5082117;28;20537;-73
2022/12/13 03:21:49;;;;;;;46.83;23.13;;;-10.40;99.90;;;;;;5078075;28;20302;-72
2022/12/13 03:24:18;;;;;;;50.93;23.10;;;-10.20;99.90;;;;;;5075839;28;20196;-73
2022/12/13 03:26:47;;;;;;;48.77;22.57;;;-10.20;99.90;;;;;;5076531;28;20206;-73
2022/12/13 03:29:14;;;;;;;48.43;23.37;;;-10.30;99.90;;;;;;5076247;28;20652;-73
2022/12/13 03:31:40;;;;;;;49.60;24.87;;;-10.40;99.90;;;;;;5076023;28;20200;-73
2022/12/13 03:34:08;;;;;;;52.53;23.93;;;-10.40;99.90;;;;;;5076282;28;20251;-73
2022/12/13 03:36:35;;;;;;;52.10;23.70;;;-10.40;99.90;;;;;;5076161;28;20201;-73
2022/12/13 03:39:02;;;;;;;50.80;23.10;;;-10.50;99.90;;;;;;5075836;28;20197;-72
2022/12/13 03:41:31;;;;;;;48.33;24.37;;;-10.50;99.90;;;;;;5075971;28;20315;-73
2022/12/13 03:43:58;;;;;;;47.90;22.63;;;-10.60;99.90;;;;;;5075539;28;20208;-73
2022/12/13 03:46:25;;;;;;;44.97;22.17;;;-10.70;99.90;;;;;;5075570;28;20656;-73
2022/12/13 03:48:51;;;;;;;49.00;23.53;;;-10.60;99.90;;;;;;5076061;28;20542;-72
2022/12/13 03:51:19;;;;;;;50.70;23.50;;;-10.60;99.90;;;;;;5075303;28;20231;-73
2022/12/13 03:53:46;;;;;;;52.37;23.43;;;-10.70;99.90;;;;;;5074719;28;20331;-72
2022/12/13 03:56:13;;;;;;;46.53;24.77;;;-10.70;99.90;;;;;;5075610;28;20598;-73
2022/12/13 03:58:41;;;;;;;46.33;23.27;;;-10.80;99.90;;;;;;5075664;28;20250;-72
2022/12/13 04:01:09;;;;;;;45.90;23.63;;;-10.80;99.90;;;;;;5075570;28;20293;-72
2022/12/13 04:03:37;;;;;;;50.33;23.03;;;-10.80;99.90;;;;;;5076189;28;20192;-73
2022/12/13 04:06:04;;;;;;;51.57;22.87;;;-10.90;99.90;;;;;;5079458;28;20218;-73
2022/12/13 04:08:32;;;;;;;48.67;23.97;;;-10.90;99.90;;;;;;5080683;28;20625;-73
2022/12/13 04:13:31;;;;;;;44.60;23.00;;;-10.90;99.90;;;;;;5081587;28;20227;-73
2022/12/13 04:13:45;;;;;;;55.17;24.90;;;-10.90;99.90;;;;;;5081211;28;20231;-72
2022/12/13 04:16:11;;;;;;;43.83;22.90;;;-10.90;99.90;;;;;;5081811;28;20200;-73
2022/12/13 04:18:38;;;;;;;47.93;22.73;;;-11.00;99.90;;;;;;5079984;28;20263;-72
2022/12/13 04:21:05;;;;;;;48.00;22.17;;;-11.00;99.90;;;;;;5075382;28;20220;-73
2022/12/13 04:23:33;;;;;;;48.27;22.00;;;-11.00;99.90;;;;;;5075358;28;20618;-72
2022/12/13 04:26:01;;;;;;;48.87;23.33;;;-11.10;99.90;;;;;;5075298;28;20584;-73
2022/12/13 04:28:27;;;;;;;46.03;23.17;;;-11.00;99.90;;;;;;5074819;28;20196;-72
2022/12/13 04:30:54;;;;;;;40.40;20.70;;;-11.10;99.90;;;;;;5074760;28;20201;-72
2022/12/13 04:33:21;;;;;;;42.13;22.30;;;-11.10;99.90;;;;;;5075002;28;20197;-72
2022/12/13 04:35:48;;;;;;;45.37;21.13;;;-11.10;99.90;;;;;;5074856;28;20601;-73
2022/12/13 04:38:15;;;;;;;45.80;21.90;;;-11.20;99.90;;;;;;5074934;28;20266;-72
2022/12/13 04:40:43;;;;;;;46.57;22.77;;;-11.10;99.90;;;;;;5074960;28;20754;-72
2022/12/13 04:43:10;;;;;;;42.47;22.13;;;-11.10;99.90;;;;;;5075043;28;20262;-72
2022/12/13 04:45:37;;;;;;;41.77;22.37;;;-11.10;99.90;;;;;;5075288;28;20292;-73
2022/12/13 04:48:04;;;;;;;47.23;22.50;;;-11.10;99.90;;;;;;5074988;28;20196;-73
2022/12/13 04:50:30;;;;;;;48.77;22.67;;;-11.10;99.90;;;;;;5075084;28;20197;-73
2022/12/13 04:52:57;;;;;;;42.57;21.10;;;-11.20;99.90;;;;;;5074905;28;20201;-73
2022/12/13 04:55:24;;;;;;;42.07;20.90;;;-11.30;99.90;;;;;;5074824;28;20193;-73
2022/12/13 04:57:52;;;;;;;45.63;21.13;;;-11.40;99.90;;;;;;5074710;28;20250;-73
2022/12/13 05:00:20;;;;;;;43.20;21.40;;;-11.40;99.90;;;;;;5074649;28;20246;-72
2022/12/13 05:02:47;;;;;;;41.83;21.83;;;-11.30;99.90;;;;;;5074355;28;20719;-74
2022/12/13 05:05:14;;;;;;;37.20;19.73;;;-11.30;99.90;;;;;;5074229;28;20610;-73
2022/12/13 05:07:40;;;;;;;42.83;20.27;;;-11.40;99.90;;;;;;5074155;28;20284;-72
2022/12/13 05:10:08;;;;;;;39.07;19.87;;;-11.50;99.90;;;;;;5073873;28;20228;-73
2022/12/13 05:12:34;;;;;;;40.20;20.67;;;-11.60;99.90;;;;;;5074183;28;20205;-73
2022/12/13 05:15:02;;;;;;;37.47;19.13;;;-11.60;99.90;;;;;;5074219;28;20192;-72
2022/12/13 05:17:30;;;;;;;42.23;20.33;;;-11.70;99.90;;;;;;5074652;28;20208;-72
2022/12/13 05:19:57;;;;;;;43.97;20.87;;;-11.70;99.90;;;;;;5074248;28;20203;-72
2022/12/13 05:22:23;;;;;;;38.47;20.50;;;-11.70;99.90;;;;;;5073949;28;20629;-72
2022/12/13 05:24:51;;;;;;;36.77;20.03;;;-11.70;99.90;;;;;;5074017;28;20612;-72
2022/12/13 05:27:17;;;;;;;41.70;18.70;;;-11.70;99.90;;;;;;5077901;28;20200;-73
2022/12/13 05:29:44;;;;;;;37.90;20.17;;;-11.70;99.90;;;;;;5077649;28;20600;-72
2022/12/13 05:32:12;;;;;;;40.43;20.07;;;-11.70;99.90;;;;;;5077966;28;20196;-72
2022/12/13 05:34:39;;;;;;;40.73;20.10;;;-11.70;99.90;;;;;;5077576;28;20450;-73
2022/12/13 05:37:05;;;;;;;40.60;19.77;;;-11.50;99.90;;;;;;5077575;28;20205;-72
2022/12/13 05:39:32;;;;;;;42.47;20.23;;;-11.60;99.90;;;;;;5077727;28;20192;-72
2022/12/13 05:41:59;;;;;;;38.53;19.20;;;-11.70;99.90;;;;;;5077425;28;20247;-74
2022/12/13 05:44:26;;;;;;;39.90;20.57;;;-11.70;99.90;;;;;;5077357;28;20201;-72
2022/12/13 05:46:53;;;;;;;37.40;19.53;;;-11.70;99.90;;;;;;5077770;28;20800;-72
2022/12/13 05:49:21;;;;;;;40.00;20.40;;;-11.70;99.90;;;;;;5077684;28;20200;-72
2022/12/13 05:51:48;;;;;;;38.43;20.27;;;-11.70;99.90;;;;;;5077303;28;20200;-72
2022/12/13 05:54:14;;;;;;;43.93;19.33;;;-11.50;99.90;;;;;;5077596;28;20622;-72
2022/12/13 05:56:41;;;;;;;40.37;20.23;;;-11.60;99.90;;;;;;5076719;28;20443;-73
2022/12/13 05:59:08;;;;;;;38.43;19.73;;;-11.70;99.90;;;;;;5077530;28;20201;-72
2022/12/13 06:01:34;;;;;;;36.13;19.03;;;-11.70;99.90;;;;;;5077507;28;20221;-72
2022/12/13 06:04:01;;;;;;;40.73;20.53;;;-11.70;99.90;;;;;;5077477;28;20196;-73
2022/12/13 06:06:29;;;;;;;41.27;20.57;;;-11.70;99.90;;;;;;5077217;28;20200;-72
2022/12/13 06:08:56;;;;;;;37.10;20.17;;;-11.70;99.90;;;;;;5076947;28;20228;-73
2022/12/13 06:11:23;;;;;;;36.83;18.33;;;-11.70;99.90;;;;;;5077236;28;20201;-72
2022/12/13 06:13:51;;;;;;;37.07;19.47;;;-11.70;99.90;;;;;;5077250;28;20200;-72
2022/12/13 06:16:17;;;;;;;38.47;19.17;;;-11.80;99.90;;;;;;5077136;28;20853;-74
2022/12/13 06:18:44;;;;;;;39.07;19.57;;;-11.90;99.90;;;;;;5077512;28;20197;-72
2022/12/13 06:21:11;;;;;;;38.13;19.93;;;-11.70;99.90;;;;;;5077136;28;20254;-72
2022/12/13 06:23:39;;;;;;;42.40;20.97;;;-11.70;99.90;;;;;;5076773;28;20443;-72
2022/12/13 06:26:06;;;;;;;42.27;21.03;;;-11.70;99.90;;;;;;5076529;28;20205;-72
2022/12/13 06:28:33;;;;;;;42.93;20.97;;;-11.80;99.90;;;;;;5077355;28;20532;-72
2022/12/13 06:31:00;;;;;;;45.43;22.23;;;-11.80;99.90;;;;;;5076861;28;20204;-72
2022/12/13 06:33:28;;;;;;;44.20;23.70;;;-11.80;99.90;;;;;;5077395;28;20205;-72
2022/12/13 06:35:56;;;;;;;44.90;22.30;;;-11.90;99.90;;;;;;5076410;28;20196;-72
2022/12/13 06:38:24;;;;;;;41.03;21.23;;;-11.70;99.90;;;;;;5076235;28;20438;-74
2022/12/13 06:40:52;;;;;;;41.67;21.17;;;-11.60;99.90;;;;;;5077285;28;20246;-73
2022/12/13 06:43:19;;;;;;;41.37;22.30;;;-11.60;99.90;;;;;;5076768;28;20228;-74
2022/12/13 06:45:46;;;;;;;43.10;22.17;;;-11.70;99.90;;;;;;5076640;28;20193;-74
2022/12/13 06:48:13;;;;;;;36.03;20.07;;;-11.80;99.90;;;;;;5076404;28;20197;-74
2022/12/13 06:50:39;;;;;;;36.67;20.97;;;-11.70;99.90;;;;;;5076229;28;20204;-74
2022/12/13 06:53:06;;;;;;;38.97;20.77;;;-11.70;99.90;;;;;;5075976;28;20204;-74
2022/12/13 06:55:35;;;;;;;39.47;20.27;;;-11.70;99.90;;;;;;5075775;28;20960;-73
2022/12/13 06:58:03;;;;;;;41.37;21.10;;;-11.70;99.90;;;;;;5077925;28;20288;-71
2022/12/13 07:00:30;;;;;;;41.00;21.03;;;-11.60;99.90;;;;;;5077242;28;20262;-72
2022/12/13 07:02:57;;;;;;;41.67;21.60;;;-11.50;99.90;;;;;;5077641;28;20319;-72
2022/12/13 07:05:26;;;;;;;46.13;25.30;;;-11.60;99.90;;;;;;5077728;28;20204;-72
2022/12/13 07:07:53;;;;;;;40.20;21.67;;;-11.60;99.90;;;;;;5077606;28;20530;-72
2022/12/13 07:10:20;;;;;;;42.73;22.10;;;-11.30;99.90;;;;;;5077877;28;20237;-72
2022/12/13 07:12:46;;;;;;;45.87;22.23;;;-11.20;99.90;;;;;;5077221;28;20193;-72
2022/12/13 07:15:14;;;;;;;45.37;22.30;;;-11.10;99.90;;;;;;5079759;28;20197;-72
2022/12/13 07:17:42;;;;;;;45.70;21.03;;;-11.10;99.90;;;;;;5082233;28;20197;-72
2022/12/13 07:20:10;;;;;;;49.83;23.83;;;-11.00;99.90;;;;;;5082032;28;20217;-72
2022/12/13 07:22:37;;;;;;;41.50;21.87;;;-11.00;99.90;;;;;;5079217;28;20224;-72
2022/12/13 07:25:05;;;;;;;39.87;21.07;;;-11.00;99.90;;;;;;5082054;28;20200;-72
2022/12/13 07:27:32;;;;;;;38.50;20.80;;;-11.00;99.90;;;;;;5081850;28;20675;-72
2022/12/13 07:29:58;;;;;;;43.07;22.43;;;-11.00;99.90;;;;;;5079179;28;20223;-72
2022/12/13 07:32:26;;;;;;;38.90;22.30;;;-11.00;99.90;;;;;;5075625;28;20258;-72
2022/12/13 07:34:53;;;;;;;47.33;23.43;;;-10.80;99.90;;;;;;5078845;28;20718;-72
2022/12/13 07:37:20;;;;;;;41.83;22.50;;;-10.70;99.90;;;;;;5081469;28;20200;-72
2022/12/13 07:39:46;;;;;;;44.13;22.20;;;-10.60;99.90;;;;;;5081482;28;20242;-72
2022/12/13 07:42:13;;;;;;;50.30;24.30;;;-10.50;99.90;;;;;;5081457;28;20274;-72
2022/12/13 07:44:40;;;;;;;50.20;24.73;;;-10.50;99.90;;;;;;5081714;28;20207;-72
2022/12/13 07:47:06;;;;;;;48.50;24.47;;;-10.40;99.90;;;;;;5080065;28;20200;-72
2022/12/13 07:49:34;;;;;;;49.20;25.03;;;-10.30;99.90;;;;;;5079443;28;20331;-73
2022/12/13 07:52:01;;;;;;;47.53;24.57;;;-10.10;99.90;;;;;;5080854;28;20259;-73
2022/12/13 07:54:28;;;;;;;42.17;24.00;;;-10.00;99.90;;;;;;5077696;28;20200;-72
2022/12/13 07:56:54;;;;;;;47.87;24.10;;;-9.90;99.90;;;;;;5074949;28;20201;-71
2022/12/13 07:59:21;;;;;;;45.03;24.47;;;-9.80;99.90;;;;;;5074551;28;20197;-72
2022/12/13 08:01:48;;;;;;;50.23;25.00;;;-9.60;99.90;;;;;;5074419;28;20218;-72
2022/12/13 08:04:14;;;;;;;48.10;24.27;;;-9.50;99.90;;;;;;5074598;28;20220;-73
2022/12/13 08:06:42;;;;;;;50.63;24.17;;;-9.30;99.90;;;;;;5074286;28;20238;-72
2022/12/13 08:09:09;;;;;;;49.63;25.07;;;-9.20;99.90;;;;;;5074458;28;20225;-72
2022/12/13 08:11:35;;;;;;;46.53;23.90;;;-9.00;99.90;;;;;;5074154;28;20202;-72
2022/12/13 08:14:02;;;;;;;46.90;23.83;;;-8.80;99.90;;;;;;5074611;28;20255;-71
2022/12/13 08:16:29;;;;;;;48.83;24.67;;;-8.60;99.90;;;;;;5074781;28;20711;-70
2022/12/13 08:18:56;;;;;;;45.73;23.93;;;-8.50;99.90;;;;;;5074078;28;20199;-72
2022/12/13 08:21:23;;;;;;;51.17;25.87;;;-8.20;99.90;;;;;;5074393;28;20654;-72
2022/12/13 08:23:51;;;;;;;51.57;27.03;;;-8.00;99.90;;;;;;5074627;28;20275;-72
2022/12/13 08:26:17;;;;;;;53.00;25.60;;;-7.80;99.90;;;;;;5074457;28;20199;-72
2022/12/13 08:28:44;;;;;;;46.37;24.90;;;-7.60;99.90;;;;;;5074383;28;20199;-72
2022/12/13 08:31:13;;;;;;;51.10;26.03;;;-7.50;99.90;;;;;;5075098;28;20204;-72
2022/12/13 08:33:42;;;;;;;51.33;25.47;;;-7.40;99.90;;;;;;5074637;28;20203;-73
2022/12/13 08:36:10;;;;;;;54.83;26.87;;;-7.30;99.90;;;;;;5081599;28;20220;-73
2022/12/13 08:38:37;;;;;;;58.07;29.10;;;-7.20;99.90;;;;;;5077309;28;20197;-71
2022/12/13 08:41:05;;;;;;;53.90;29.50;;;-7.00;99.90;;;;;;5074443;28;20284;-72
2022/12/13 08:43:32;;;;;;;55.13;29.10;;;-6.80;99.90;;;;;;5074048;28;20220;-71
2022/12/13 08:45:59;;;;;;;55.83;30.07;;;-6.60;99.90;;;;;;5073887;28;20205;-71
2022/12/13 08:48:26;;;;;;;57.17;29.90;;;-6.40;99.90;;;;;;5073876;28;20595;-72
2022/12/13 08:50:52;;;;;;;56.87;31.13;;;-6.20;99.90;;;;;;5073644;28;20201;-71
2022/12/13 08:53:19;;;;;;;56.73;31.20;;;-6.10;99.90;;;;;;5073193;28;20200;-72
2022/12/13 08:55:46;;;;;;;53.13;30.47;;;-5.90;99.90;;;;;;5074378;28;20564;-72
2022/12/13 08:58:14;;;;;;;45.57;26.90;;;-5.70;99.90;;;;;;5073730;28;20293;-72
2022/12/13 09:00:41;;;;;;;46.27;25.63;;;-5.50;99.90;;;;;;5075914;28;20203;-72
2022/12/13 09:03:08;;;;;;;45.07;23.57;;;-5.20;99.90;;;;;;5078015;28;20228;-72
2022/12/13 09:05:35;;;;;;;39.27;21.97;;;-5.10;99.90;;;;;;5078357;28;20201;-72
2022/12/13 09:08:03;;;;;;;42.57;23.83;;;-5.00;99.90;;;;;;5078113;28;20197;-72
2022/12/13 09:10:30;;;;;;;32.80;20.97;;;-4.80;99.90;;;;;;5077360;28;20229;-72
2022/12/13 09:12:58;;;;;;;31.40;19.97;;;-4.60;99.90;;;;;;5077724;28;20251;-72
2022/12/13 09:15:27;;;;;;;28.83;19.37;;;-4.50;99.90;;;;;;5077850;28;20235;-72
2022/12/13 09:17:54;;;;;;;27.90;18.07;;;-4.40;99.90;;;;;;5078838;28;20211;-72
2022/12/13 09:20:21;;;;;;;25.87;17.17;;;-4.00;99.90;;;;;;5078233;28;20200;-74
2022/12/13 09:22:49;;;;;;;29.00;17.70;;;-4.00;99.90;;;;;;5078075;28;20232;-72
2022/12/13 09:25:15;;;;;;;25.00;16.80;;;-3.90;99.90;;;;;;5078728;28;20201;-72
2022/12/13 09:27:42;;;;;;;25.87;17.43;;;-3.70;99.90;;;;;;5078354;28;20201;-72
2022/12/13 09:30:12;;;;;;;25.30;17.20;;;-3.50;99.90;;;;;;5081690;28;20198;-74
2022/12/13 09:32:42;;;;;;;24.63;17.40;;;-3.40;99.90;;;;;;5082708;28;20237;-73
2022/12/13 09:35:09;;;;;;;25.93;17.67;;;-3.30;99.90;;;;;;5082935;28;20225;-75
2022/12/13 09:37:36;;;;;;;25.27;17.37;;;-3.10;99.90;;;;;;5084205;28;20226;-72
2022/12/13 09:40:03;;;;;;;25.93;18.90;;;-3.00;99.90;;;;;;5082252;28;20211;-73
2022/12/13 09:42:31;;;;;;;25.00;18.53;;;-3.00;99.90;;;;;;5077374;28;20224;-74
2022/12/13 09:45:00;;;;;;;29.37;20.83;;;-2.90;99.90;;;;;;5079348;28;20205;-74
2022/12/13 09:47:33;;;;;;;29.83;20.23;;;-2.80;99.90;;;;;;5083572;28;20219;-74
2022/12/13 09:50:04;;;;;;;26.80;20.57;;;-2.70;99.90;;;;;;5083123;28;20197;-73
2022/12/13 09:52:37;;;;;;;28.07;20.00;;;-2.40;99.90;;;;;;5082474;28;20193;-73
2022/12/13 09:55:16;;;;;;;25.03;19.00;;;-2.30;99.90;;;;;;5084960;28;20288;-74
2022/12/13 09:57:43;;;;;;;25.20;17.77;;;-2.00;99.90;;;;;;5085003;28;20201;-74
2022/12/13 10:00:14;;;;;;;23.00;17.37;;;-2.00;99.90;;;;;;5071232;28;20197;-73
2022/12/13 10:02:44;;;;;;;22.20;17.20;;;-1.80;99.90;;;;;;5061282;28;20785;-74
2022/12/13 10:05:20;;;;;;;22.50;15.73;;;-1.80;99.90;;;;;;5074774;28;20260;-74
2022/12/13 10:07:47;;;;;;;20.97;15.67;;;-1.40;99.90;;;;;;5078402;28;20203;-74
2022/12/13 10:10:14;;;;;;;22.60;16.20;;;-1.20;99.90;;;;;;5078846;28;20280;-74
2022/12/13 10:12:43;;;;;;;22.07;17.17;;;-1.00;99.90;;;;;;5079069;28;20208;-74
2022/12/13 10:15:15;;;;;;;19.80;17.00;;;-0.30;99.90;;;;;;5079646;28;20549;-73
2022/12/13 10:17:47;;;;;;;21.67;16.43;;;0.30;99.90;;;;;;5079401;28;20197;-74
2022/12/13 10:20:19;;;;;;;22.77;17.27;;;1.10;99.90;;;;;;5079036;28;20201;-75
2022/12/13 10:22:46;;;;;;;20.60;16.87;;;2.10;99.90;;;;;;5075584;28;20224;-74
2022/12/13 10:25:13;;;;;;;19.93;17.30;;;2.60;99.90;;;;;;5075004;28;20250;-73
2022/12/13 10:27:42;;;;;;;20.30;17.50;;;3.70;99.90;;;;;;5074811;28;20280;-73
2022/12/13 10:30:11;;;;;;;21.33;16.87;;;4.00;99.90;;;;;;5074566;28;20595;-73
2022/12/13 10:32:52;;;;;;;19.87;17.17;;;4.30;99.90;;;;;;5074996;28;20250;-73
2022/12/13 10:35:24;;;;;;;21.17;17.43;;;4.50;99.40;;;;;;5074356;28;20197;-73
2022/12/13 10:37:52;;;;;;;20.40;17.53;;;4.80;97.70;;;;;;5074614;28;20201;-73
2022/12/13 10:40:27;;;;;;;19.83;16.57;;;4.80;97.30;;;;;;5074687;28;20200;-73
2022/12/13 10:43:07;;;;;;;19.50;16.97;;;5.00;97.00;;;;;;5074847;28;20303;-73
2022/12/13 10:45:33;;;;;;;18.30;16.03;;;5.90;96.50;;;;;;5074944;28;20630;-74
2022/12/13 10:48:02;;;;;;;19.87;16.70;;;6.40;93.60;;;;;;5074858;28;20251;-73
2022/12/13 10:50:31;;;;;;;19.27;16.20;;;6.30;92.90;;;;;;5074469;28;20595;-73
2022/12/13 10:52:59;;;;;;;18.97;15.17;;;6.60;91.30;;;;;;5074716;28;20254;-72
2022/12/13 10:55:29;;;;;;;17.83;15.93;;;6.30;90.00;;;;;;5074794;28;20219;-73
2022/12/13 10:57:58;;;;;;;18.07;15.87;;;6.10;90.40;;;;;;5074680;28;20545;-71
2022/12/13 11:00:38;;;;;;;17.57;15.50;;;6.40;89.30;;;;;;5074188;28;20193;-72
2022/12/13 11:03:05;;;;;;;18.47;15.23;;;6.30;88.70;;;;;;5074219;28;20684;-72
2022/12/13 11:05:34;;;;;;;18.97;15.30;;;6.90;85.80;;;;;;5074000;28;20189;-72
2022/12/13 11:08:16;;;;;;;17.50;15.53;;;7.30;85.20;;;;;;5074269;28;20255;-74
2022/12/13 11:10:43;;;;;;;17.23;15.13;;;7.30;80.90;;;;;;5073971;28;20228;-72
2022/12/13 11:13:24;;;;;;;16.50;14.47;;;7.70;81.00;;;;;;5073973;28;20205;-73
2022/12/13 11:15:55;;;;;;;17.23;14.10;;;7.70;79.80;;;;;;5074106;28;20288;-71
2022/12/13 11:18:24;;;;;;;16.43;14.30;;;7.90;77.90;;;;;;5070176;28;20197;-73
2022/12/13 11:20:55;;;;;;;16.83;14.27;;;8.00;75.70;;;;;;5053501;28;20642;-73
2022/12/13 11:23:28;;;;;;;16.83;13.90;;;8.50;73.60;;;;;;5053048;28;20221;-73
2022/12/13 11:25:57;;;;;;;15.00;13.13;;;8.30;73.20;;;;;;5053960;28;20247;-73
2022/12/13 11:28:53;;;;;;;15.13;13.53;;;9.00;72.60;;;;;;5053955;28;20343;-73
2022/12/13 11:31:28;;;;;;;15.13;13.57;;;9.20;68.40;;;;;;5049039;28;20194;-73
2022/12/13 11:34:03;;;;;;;15.05;13.45;;;9.30;68.90;;;;;;5053716;28;20205;-73
2022/12/13 11:36:42;;;;;;;15.50;13.52;;;9.50;66.60;;;;;;5053729;28;20291;-73
2022/12/13 11:39:21;;;;;;;14.35;12.82;;;9.50;64.40;;;;;;5053924;28;20213;-73
2022/12/13 11:41:54;;;;;;;14.75;13.05;;;9.30;63.30;;;;;;5053784;28;20676;-73
2022/12/13 11:44:27;;;;;;;14.80;13.20;;;8.70;61.80;;;;;;5053262;28;20522;-74
2022/12/13 11:46:57;;;;;;;14.20;12.63;;;8.30;61.50;;;;;;5053378;28;20328;-73
2022/12/13 11:49:40;;;;;;;14.47;12.93;;;8.30;62.60;;;;;;5060763;28;20197;-73
2022/12/13 11:52:14;;;;;;;13.67;12.27;;;8.00;61.30;;;;;;5073035;28;20242;-72
2022/12/13 11:54:48;;;;;;;14.73;12.97;;;7.80;63.20;;;;;;5072785;28;20216;-72
2022/12/13 11:57:29;;;;;;;15.30;13.13;;;7.70;63.60;;;;;;5072971;28;20201;-72
2022/12/13 12:00:04;;;;;;;18.20;12.57;;;8.40;64.20;;;;;;5073099;28;20254;-71
2022/12/13 12:02:34;;;;;;;13.43;12.03;;;8.10;62.80;;;;;;5073019;28;20540;-71
2022/12/13 12:05:05;;;;;;;13.83;12.40;;;9.00;62.00;;;;;;5073142;28;20229;-71
2022/12/13 12:07:38;;;;;;;13.80;12.27;;;9.30;60.30;;;;;;5072623;28;20197;-71
2022/12/13 12:10:23;;;;;;;14.43;12.33;;;9.60;59.40;;;;;;5072887;28;20322;-72
2022/12/13 12:12:55;;;;;;;14.57;12.60;;;9.90;59.30;;;;;;5072979;28;20208;-72
2022/12/13 12:15:25;;;;;;;14.93;13.00;;;9.80;59.40;;;;;;5072898;28;20258;-72
2022/12/13 12:17:51;;;;;;;15.20;13.13;;;10.00;57.90;;;;;;5072741;28;20205;-72
2022/12/13 12:20:26;;;;;;;14.10;12.52;;;9.80;57.50;;;;;;5072972;28;20205;-72
2022/12/13 12:23:03;;;;;;;14.30;12.52;;;9.00;57.90;;;;;;5085449;28;20643;-72
2022/12/13 12:25:40;;;;;;;13.02;11.68;;;9.30;56.50;;;;;;5093077;28;20658;-72
2022/12/13 12:28:17;;;;;;;13.50;12.10;;;9.70;56.60;;;;;;5092829;28;20245;-72
2022/12/13 12:30:52;;;;;;;14.82;12.52;;;9.70;57.10;;;;;;5093123;28;20257;-72
2022/12/13 12:33:30;;;;;;;14.00;11.88;;;9.90;55.70;;;;;;5092737;28;20257;-72
2022/12/13 12:36:12;;;;;;;14.73;12.80;;;9.40;55.60;;;;;;5092604;28;20741;-72
2022/12/13 12:39:12;;;;;;;14.60;13.00;;;9.50;55.40;;;;;;5092928;28;20273;-72
2022/12/13 12:41:50;;;;;;;14.27;12.43;;;9.60;55.10;;;;;;5092949;28;20292;-72